Time;durP1;ratioP1;P1;durP2;ratioP2;P2;SDS_P1;SDS_P2;PMS_P1;PMS_P2;Temp;Humidity;BMP_temperature;BMP_pressure;BME280_temperature;BME280_humidity;BME280_pressure;Samples;Min_cycle;Max_cycle;Signal;HPM_P1;HPM_P2
2023/10/20 00:01:28;;;;;;;0.10;0.10;;;;;;;16.30;83.58;97356.41;7360612;19;20020;-59
2023/10/20 00:03:54;;;;;;;0.10;0.10;;;;;;;16.45;83.43;97382.19;7343490;19;20017;-60
2023/10/20 00:06:20;;;;;;;0.10;0.10;;;;;;;16.44;83.65;97373.47;7352077;19;20014;-60
2023/10/20 00:08:46;;;;;;;0.10;0.10;;;;;;;16.46;83.42;97370.69;7360299;19;20978;-60
2023/10/20 00:11:12;;;;;;;0.10;0.10;;;;;;;16.46;83.48;97379.41;7354590;19;20018;-60
2023/10/20 00:13:38;;;;;;;0.10;0.10;;;;;;;16.48;83.67;97379.28;7360689;19;20010;-59
2023/10/20 00:16:03;;;;;;;0.10;0.10;;;;;;;16.50;83.65;97379.94;7357352;19;20541;-60
2023/10/20 00:18:29;;;;;;;0.10;0.10;;;;;;;16.50;83.46;97375.50;7358401;19;20011;-60
2023/10/20 00:20:54;;;;;;;0.10;0.10;;;;;;;16.52;83.35;97375.31;7357584;19;20021;-60
2023/10/20 00:23:19;;;;;;;0.10;0.10;;;;;;;16.54;83.13;97376.00;7366483;19;20015;-60
2023/10/20 00:25:45;;;;;;;0.08;0.08;;;;;;;16.53;83.33;97379.63;7355390;19;20019;-60
2023/10/20 00:28:10;;;;;;;0.10;0.10;;;;;;;16.50;83.15;97367.59;7358858;19;20003;-60
2023/10/20 00:30:37;;;;;;;0.10;0.10;;;;;;;16.58;83.33;97380.00;7356433;19;20022;-60
2023/10/20 00:33:03;;;;;;;0.10;0.10;;;;;;;16.57;83.11;97384.44;7359608;19;20006;-59
2023/10/20 00:35:29;;;;;;;0.10;0.10;;;;;;;16.57;83.18;97378.31;7356761;19;20014;-60
2023/10/20 00:37:55;;;;;;;0.10;0.10;;;;;;;16.56;82.94;97379.31;7358731;19;20035;-60
2023/10/20 00:40:20;;;;;;;0.05;0.05;;;;;;;16.55;82.84;97380.28;7353940;19;20936;-60
2023/10/20 00:42:45;;;;;;;0.00;0.00;;;;;;;16.55;82.68;97385.56;7357620;19;20036;-60
2023/10/20 00:45:11;;;;;;;0.10;0.10;;;;;;;16.53;82.54;97392.81;7355999;19;20043;-60
2023/10/20 00:47:38;;;;;;;0.10;0.10;;;;;;;16.50;82.83;97387.84;7359215;19;20053;-60
2023/10/20 00:50:06;;;;;;;0.10;0.10;;;;;;;16.49;82.83;97392.28;7363504;19;20025;-60
2023/10/20 00:52:35;;;;;;;0.10;0.10;;;;;;;16.48;83.05;97400.34;7363253;19;20007;-60
2023/10/20 00:55:02;;;;;;;0.08;0.08;;;;;;;16.40;83.07;97397.63;7363938;19;20010;-60
2023/10/20 00:57:27;;;;;;;0.10;0.10;;;;;;;16.31;82.92;97379.13;7366238;19;20023;-61
2023/10/20 00:59:53;;;;;;;0.10;0.10;;;;;;;16.43;82.82;97402.59;7359144;19;20007;-59
2023/10/20 01:02:20;;;;;;;0.10;0.10;;;;;;;16.47;82.86;97409.19;7356282;19;20014;-60
2023/10/20 01:04:45;;;;;;;0.10;0.10;;;;;;;16.45;83.21;97405.91;7352646;19;20084;-60
2023/10/20 01:07:11;;;;;;;0.10;0.10;;;;;;;16.47;82.98;97411.81;7359437;19;20007;-60
2023/10/20 01:09:36;;;;;;;0.10;0.10;;;;;;;16.43;82.87;97410.50;7355391;19;20012;-60
2023/10/20 01:12:03;;;;;;;0.10;0.10;;;;;;;16.49;83.17;97415.16;7366062;19;20459;-60
2023/10/20 01:14:28;;;;;;;0.10;0.10;;;;;;;16.48;83.20;97416.16;7359325;19;20007;-59
2023/10/20 01:16:54;;;;;;;0.15;0.15;;;;;;;16.46;83.10;97416.28;7361019;19;20015;-60
2023/10/20 01:19:19;;;;;;;0.10;0.10;;;;;;;16.51;83.01;97416.66;7358691;19;20526;-60
2023/10/20 01:21:45;;;;;;;0.10;0.10;;;;;;;16.52;82.90;97423.56;7358646;19;20010;-60
2023/10/20 01:24:10;;;;;;;0.10;0.10;;;;;;;16.54;83.15;97426.06;7355771;19;19999;-60
2023/10/20 01:26:35;;;;;;;0.00;0.00;;;;;;;16.54;82.98;97432.16;7356926;19;20009;-60
2023/10/20 01:29:05;;;;;;;0.10;0.10;;;;;;;16.56;83.32;97424.09;7361761;19;19994;-59
2023/10/20 01:31:31;;;;;;;0.10;0.10;;;;;;;16.55;83.00;97432.97;7357542;19;20562;-60
2023/10/20 01:33:56;;;;;;;0.08;0.08;;;;;;;16.56;83.16;97424.91;7354032;19;20025;-60
2023/10/20 01:36:21;;;;;;;0.10;0.10;;;;;;;16.55;83.11;97418.00;7357756;19;20577;-60
2023/10/20 01:38:47;;;;;;;0.10;0.10;;;;;;;16.56;82.67;97413.56;7353979;19;20017;-61
2023/10/20 01:41:12;;;;;;;0.10;0.10;;;;;;;16.55;82.89;97411.91;7358952;19;20840;-60
2023/10/20 01:43:38;;;;;;;0.20;0.20;;;;;;;16.52;82.90;97413.03;7353917;19;20030;-60
2023/10/20 01:46:04;;;;;;;0.10;0.10;;;;;;;16.52;82.63;97422.72;7358570;19;20472;-60
2023/10/20 01:48:32;;;;;;;0.10;0.10;;;;;;;16.49;82.75;97415.16;7362489;19;20013;-60
2023/10/20 01:51:00;;;;;;;0.10;0.10;;;;;;;16.48;82.46;97413.50;7367427;19;20029;-61
2023/10/20 01:53:26;;;;;;;0.10;0.10;;;;;;;16.42;82.48;97411.47;7362569;19;19998;-60
2023/10/20 01:55:51;;;;;;;0.00;0.00;;;;;;;16.41;82.74;97413.28;7362660;19;20727;-60
2023/10/20 01:58:20;;;;;;;0.10;0.10;;;;;;;16.40;82.89;97416.88;7361760;19;20005;-60
2023/10/20 02:00:50;;;;;;;0.10;0.10;;;;;;;16.28;82.71;97407.56;7364875;19;20022;-60
2023/10/20 02:03:15;;;;;;;0.10;0.10;;;;;;;16.32;82.85;97417.66;7368195;19;20007;-60
2023/10/20 02:05:41;;;;;;;0.10;0.10;;;;;;;16.26;82.54;97412.97;7368859;19;20010;-60
2023/10/20 02:08:08;;;;;;;0.10;0.10;;;;;;;16.28;82.99;97418.09;7361295;19;20028;-60
2023/10/20 02:10:34;;;;;;;0.00;0.00;;;;;;;16.27;82.79;97419.06;7368029;19;20458;-61
2023/10/20 02:13:00;;;;;;;0.10;0.10;;;;;;;16.26;82.59;97422.69;7367889;19;20074;-60
2023/10/20 02:15:26;;;;;;;0.10;0.10;;;;;;;16.22;83.05;97427.44;7362979;19;20102;-60
2023/10/20 02:17:51;;;;;;;0.10;0.10;;;;;;;16.22;82.92;97426.59;7360869;19;21430;-60
2023/10/20 02:20:20;;;;;;;0.10;0.10;;;;;;;16.20;83.02;97416.22;7365264;19;20021;-60
2023/10/20 02:22:48;;;;;;;0.10;0.10;;;;;;;16.19;82.56;97419.84;7367557;19;20463;-60
2023/10/20 02:25:15;;;;;;;0.10;0.10;;;;;;;16.17;83.00;97419.16;7357091;19;20010;-60
2023/10/20 02:27:42;;;;;;;0.10;0.10;;;;;;;16.15;82.90;97423.72;7367902;19;20039;-61
2023/10/20 02:30:09;;;;;;;0.10;0.10;;;;;;;16.14;82.86;97429.97;7358772;19;20711;-60
2023/10/20 02:32:35;;;;;;;0.10;0.10;;;;;;;16.12;82.65;97426.69;7368855;19;20010;-60
2023/10/20 02:35:01;;;;;;;0.10;0.10;;;;;;;16.13;82.88;97427.50;7369370;19;20721;-60
2023/10/20 02:37:26;;;;;;;0.10;0.10;;;;;;;16.10;83.14;97418.09;7363596;19;20858;-60
2023/10/20 02:39:52;;;;;;;0.10;0.10;;;;;;;16.10;82.96;97423.34;7363749;19;20014;-60
2023/10/20 02:42:17;;;;;;;0.10;0.10;;;;;;;16.12;82.98;97420.56;7368903;19;20038;-61
2023/10/20 02:44:43;;;;;;;0.10;0.10;;;;;;;16.10;82.83;97420.72;7360081;19;20030;-60
2023/10/20 02:47:08;;;;;;;0.10;0.10;;;;;;;16.11;83.29;97417.09;7366288;19;20478;-61
2023/10/20 02:49:35;;;;;;;0.10;0.10;;;;;;;16.11;82.97;97411.84;7353639;19;20011;-60
2023/10/20 02:52:00;;;;;;;0.10;0.10;;;;;;;16.12;82.99;97410.03;7363107;19;20018;-60
2023/10/20 02:54:26;;;;;;;0.10;0.10;;;;;;;16.11;83.20;97405.75;7367084;19;20023;-60
2023/10/20 02:56:56;;;;;;;0.10;0.10;;;;;;;16.12;82.98;97405.63;7362746;19;20771;-60
2023/10/20 02:59:21;;;;;;;0.10;0.10;;;;;;;16.11;82.68;97408.38;7364582;19;20022;-61
2023/10/20 03:01:46;;;;;;;0.10;0.10;;;;;;;16.09;82.88;97405.91;7369621;19;20026;-60
2023/10/20 03:04:12;;;;;;;0.10;0.10;;;;;;;16.09;83.09;97400.66;7363331;19;20042;-61
2023/10/20 03:06:37;;;;;;;0.10;0.10;;;;;;;16.08;82.89;97399.00;7370387;19;20467;-60
2023/10/20 03:09:03;;;;;;;0.10;0.10;;;;;;;16.07;82.73;97397.34;7367295;19;20014;-60
2023/10/20 03:11:28;;;;;;;0.10;0.10;;;;;;;16.06;82.89;97390.41;7366437;19;20003;-60
2023/10/20 03:13:53;;;;;;;0.10;0.10;;;;;;;15.98;82.76;97388.53;7362511;19;20030;-61
2023/10/20 03:16:19;;;;;;;0.10;0.10;;;;;;;16.02;82.80;97394.34;7362149;19;20018;-60
2023/10/20 03:18:45;;;;;;;0.10;0.10;;;;;;;16.01;82.56;97395.28;7333046;19;20031;-60
2023/10/20 03:21:10;;;;;;;0.10;0.10;;;;;;;15.98;82.58;97395.63;7350159;19;20034;-60
2023/10/20 03:23:36;;;;;;;0.10;0.10;;;;;;;15.97;82.42;97396.59;7363818;19;20006;-61
2023/10/20 03:26:02;;;;;;;0.10;0.10;;;;;;;15.95;82.60;97393.28;7359952;19;20361;-60
2023/10/20 03:28:28;;;;;;;0.10;0.10;;;;;;;15.94;82.78;97396.88;7362864;19;20011;-60
2023/10/20 03:30:54;;;;;;;0.10;0.10;;;;;;;15.92;82.68;97393.59;7361737;19;20609;-60
2023/10/20 03:33:19;;;;;;;0.10;0.10;;;;;;;15.88;82.65;97384.31;7363057;19;20010;-60
2023/10/20 03:35:45;;;;;;;0.10;0.10;;;;;;;15.88;82.88;97392.22;7360759;19;20704;-60
2023/10/20 03:38:11;;;;;;;0.10;0.10;;;;;;;15.83;82.95;97398.75;7361614;19;20046;-60
2023/10/20 03:40:37;;;;;;;0.10;0.10;;;;;;;15.81;82.88;97400.72;7367226;19;20378;-60
2023/10/20 03:43:10;;;;;;;0.10;0.10;;;;;;;15.82;82.82;97399.72;7367941;19;20026;-60
2023/10/20 03:45:48;;;;;;;0.10;0.10;;;;;;;15.79;82.92;97394.75;7365699;19;20063;-60
2023/10/20 03:48:14;;;;;;;0.10;0.10;;;;;;;15.79;82.92;97400.03;7362568;19;20029;-61
2023/10/20 03:50:42;;;;;;;0.10;0.10;;;;;;;15.78;82.85;97395.75;7364775;19;20007;-60
2023/10/20 03:53:07;;;;;;;0.10;0.10;;;;;;;15.78;82.79;97398.38;7371264;19;20017;-61
2023/10/20 03:55:33;;;;;;;0.10;0.10;;;;;;;15.78;83.14;97395.75;7353718;19;20011;-61
2023/10/20 03:57:59;;;;;;;0.10;0.10;;;;;;;15.79;83.26;97394.75;7363802;19;20013;-60
2023/10/20 04:00:28;;;;;;;0.10;0.10;;;;;;;15.79;83.22;97399.19;7363622;19;20781;-60
2023/10/20 04:02:55;;;;;;;0.10;0.10;;;;;;;15.81;83.15;97402.50;7362006;19;21391;-60
2023/10/20 04:05:20;;;;;;;0.10;0.10;;;;;;;15.81;83.18;97408.63;7361308;19;20005;-61
2023/10/20 04:07:46;;;;;;;0.10;0.10;;;;;;;15.81;82.90;97403.34;7359170;19;20010;-61
2023/10/20 04:10:12;;;;;;;0.10;0.10;;;;;;;15.81;83.11;97400.72;7362827;19;20443;-60
2023/10/20 04:12:44;;;;;;;0.10;0.10;;;;;;;15.82;82.89;97399.72;7358743;19;20031;-61
2023/10/20 04:15:14;;;;;;;0.10;0.10;;;;;;;15.81;82.70;97398.09;7362211;19;20007;-60
2023/10/20 04:17:43;;;;;;;0.10;0.10;;;;;;;15.72;83.10;97388.44;7364775;19;20010;-60
2023/10/20 04:20:18;;;;;;;0.10;0.10;;;;;;;15.78;82.83;97397.53;7360166;19;20014;-60
2023/10/20 04:22:44;;;;;;;0.10;0.10;;;;;;;15.79;82.76;97399.19;7361934;19;20006;-61
2023/10/20 04:25:13;;;;;;;0.10;0.10;;;;;;;15.77;82.61;97401.97;7360680;19;20018;-60
2023/10/20 05:08:16;;;;;;;0.10;0.10;;;;;;;15.61;82.99;97385.16;7365002;19;20265;-61
2023/10/20 05:10:43;;;;;;;0.10;0.10;;;;;;;15.60;83.18;97394.84;7354721;19;20082;-61
2023/10/20 05:13:09;;;;;;;0.10;0.10;;;;;;;15.60;83.09;97394.84;7359931;19;20026;-60
2023/10/20 05:15:38;;;;;;;0.10;0.10;;;;;;;15.42;83.22;97363.25;7339962;19;20039;-60
2023/10/20 05:18:14;;;;;;;0.10;0.10;;;;;;;15.64;82.86;97393.59;7362749;19;20043;-61
2023/10/20 05:20:46;;;;;;;0.10;0.10;;;;;;;15.63;82.94;97399.84;7368388;19;20483;-60
2023/10/20 05:23:12;;;;;;;0.10;0.10;;;;;;;15.64;83.50;97398.03;7371415;19;20035;-61
2023/10/20 05:25:45;;;;;;;0.10;0.10;;;;;;;15.68;83.26;97400.22;7366931;19;19991;-61
2023/10/20 05:28:10;;;;;;;0.10;0.10;;;;;;;15.67;83.14;97395.97;7370037;19;20011;-61
2023/10/20 05:30:42;;;;;;;0.10;0.10;;;;;;;15.71;83.10;97397.31;7367951;19;20006;-61
2023/10/20 05:33:09;;;;;;;0.10;0.10;;;;;;;15.71;82.99;97404.34;7369735;19;20018;-61
2023/10/20 05:35:34;;;;;;;0.10;0.10;;;;;;;15.73;83.37;97405.06;7355463;19;20164;-60
2023/10/20 05:38:00;;;;;;;0.10;0.10;;;;;;;15.75;83.35;97401.28;7368400;19;20592;-60
2023/10/20 05:40:25;;;;;;;0.10;0.10;;;;;;;15.77;83.24;97401.97;7364302;19;19999;-61
2023/10/20 05:42:50;;;;;;;0.10;0.10;;;;;;;15.75;83.12;97396.03;7367023;19;20009;-61
2023/10/20 05:45:20;;;;;;;0.05;0.05;;;;;;;15.80;83.01;97398.22;7368052;19;20015;-61
2023/10/20 05:47:46;;;;;;;0.10;0.10;;;;;;;15.81;83.19;97405.97;7367209;19;20009;-61
2023/10/20 05:50:13;;;;;;;0.10;0.10;;;;;;;15.83;82.79;97404.00;7360819;19;20014;-60
2023/10/20 05:52:39;;;;;;;0.10;0.10;;;;;;;15.85;82.79;97400.41;7363133;19;20003;-60
2023/10/20 05:55:05;;;;;;;0.10;0.10;;;;;;;15.86;82.68;97404.69;7365193;19;20508;-60
2023/10/20 05:57:31;;;;;;;0.10;0.10;;;;;;;15.87;82.83;97398.47;7367876;19;20622;-61
2023/10/20 05:59:59;;;;;;;0.10;0.10;;;;;;;15.89;83.04;97407.03;7362563;19;20013;-60
2023/10/20 06:02:25;;;;;;;0.10;0.10;;;;;;;15.89;83.11;97399.13;7366614;19;20006;-61
2023/10/20 06:04:50;;;;;;;0.10;0.10;;;;;;;15.91;82.73;97405.06;7368813;19;20513;-61
2023/10/20 06:07:16;;;;;;;0.10;0.10;;;;;;;15.91;82.73;97402.44;7364944;19;20014;-61
2023/10/20 06:09:42;;;;;;;0.10;0.10;;;;;;;15.95;83.00;97409.06;7367020;19;20021;-60
2023/10/20 06:12:10;;;;;;;0.10;0.10;;;;;;;15.96;82.54;97410.72;7363416;19;20635;-61
2023/10/20 06:14:36;;;;;;;0.10;0.10;;;;;;;15.96;82.50;97415.97;7366032;19;20025;-60
2023/10/20 06:17:01;;;;;;;0.10;0.10;;;;;;;15.97;82.51;97410.56;7362328;19;20006;-61
2023/10/20 06:19:28;;;;;;;0.10;0.10;;;;;;;15.98;82.36;97414.03;7332968;19;20090;-61
2023/10/20 06:21:54;;;;;;;0.10;0.10;;;;;;;15.83;82.35;97390.03;7372257;19;20077;-60
2023/10/20 06:24:19;;;;;;;0.10;0.10;;;;;;;15.91;82.80;97402.44;7366367;19;20082;-61
2023/10/20 06:26:47;;;;;;;0.10;0.10;;;;;;;15.99;82.46;97423.59;7364808;19;19999;-61
2023/10/20 06:29:27;;;;;;;0.10;0.10;;;;;;;15.99;82.58;97421.78;7365438;19;20014;-60
2023/10/20 06:34:49;;;;;;;0.10;0.10;;;;;;;16.01;82.83;97425.06;7359121;19;20383;-60
2023/10/20 06:38:17;;;;;;;0.10;0.10;;;;;;;16.00;82.63;97422.59;7364305;19;20506;-60
2023/10/20 06:40:15;;;;;;;0.20;0.20;;;;;;;16.03;82.97;97438.09;7358905;19;20010;-61
2023/10/20 06:42:41;;;;;;;0.08;0.08;;;;;;;16.05;83.03;97436.13;7352712;19;20010;-61
2023/10/20 06:45:08;;;;;;;0.10;0.10;;;;;;;16.04;82.52;97437.94;7360593;19;20046;-61
2023/10/20 06:47:34;;;;;;;0.10;0.10;;;;;;;16.07;82.58;97439.47;7366555;19;20014;-61
2023/10/20 06:50:00;;;;;;;0.10;0.10;;;;;;;16.08;82.54;97441.13;7362572;19;20466;-61
2023/10/20 06:52:25;;;;;;;0.10;0.10;;;;;;;15.98;82.60;97429.81;7365765;19;20007;-61
2023/10/20 06:54:51;;;;;;;0.10;0.10;;;;;;;16.12;82.63;97444.25;7359408;19;20020;-61
2023/10/20 06:57:18;;;;;;;0.15;0.15;;;;;;;16.14;82.86;97447.59;7366680;19;20019;-61
2023/10/20 06:59:44;;;;;;;0.10;0.10;;;;;;;16.14;82.54;97451.03;7353198;19;20010;-60
2023/10/20 07:02:09;;;;;;;0.10;0.10;;;;;;;16.14;82.70;97445.78;7367237;19;20570;-61
2023/10/20 07:04:35;;;;;;;0.10;0.10;;;;;;;16.18;82.95;97447.13;7363858;19;20002;-61
2023/10/20 07:07:00;;;;;;;0.10;0.10;;;;;;;16.17;82.99;97442.84;7366659;19;20006;-61
2023/10/20 07:09:26;;;;;;;0.10;0.10;;;;;;;16.23;82.91;97444.88;7365435;19;19998;-60
2023/10/20 07:11:52;;;;;;;0.10;0.10;;;;;;;16.24;82.64;97451.81;7363996;19;20398;-61
2023/10/20 07:14:17;;;;;;;0.10;0.10;;;;;;;16.25;82.50;97448.19;7357335;19;20018;-61
2023/10/20 07:16:43;;;;;;;0.10;0.10;;;;;;;16.16;82.47;97430.66;7361466;19;20871;-61
2023/10/20 07:19:09;;;;;;;0.10;0.10;;;;;;;16.29;82.78;97452.19;7364847;19;19998;-61
2023/10/20 07:21:34;;;;;;;0.10;0.10;;;;;;;16.32;82.72;97448.41;7365530;19;20368;-61
2023/10/20 07:24:02;;;;;;;0.10;0.10;;;;;;;16.31;82.27;97452.84;7364517;19;20005;-61
2023/10/20 07:26:28;;;;;;;0.10;0.10;;;;;;;16.35;82.56;97458.66;7362190;19;20025;-61
2023/10/20 07:28:54;;;;;;;0.10;0.10;;;;;;;16.38;82.77;97462.81;7362303;19;20034;-59
2023/10/20 07:31:21;;;;;;;0.00;0.00;;;;;;;16.29;82.64;97443.44;7364536;19;20020;-61
2023/10/20 07:33:47;;;;;;;0.10;0.10;;;;;;;16.38;82.23;97452.25;7357339;19;20014;-60
2023/10/20 07:36:12;;;;;;;0.10;0.10;;;;;;;16.41;82.26;97457.22;7362731;19;20014;-61
2023/10/20 07:38:38;;;;;;;0.10;0.10;;;;;;;16.29;82.63;97436.38;7360063;19;20014;-61
2023/10/20 07:41:11;;;;;;;0.10;0.10;;;;;;;16.45;82.63;97454.13;7367344;19;20042;-61
2023/10/20 07:43:37;;;;;;;0.10;0.10;;;;;;;16.44;82.18;97457.75;7361543;19;20011;-61
2023/10/20 07:46:03;;;;;;;0.10;0.10;;;;;;;16.45;82.48;97451.50;7367772;19;20578;-61
2023/10/20 07:48:31;;;;;;;0.03;0.03;;;;;;;16.46;82.20;97454.97;7358134;19;20034;-60
2023/10/20 07:50:59;;;;;;;0.10;0.10;;;;;;;16.47;82.39;97453.97;7360115;19;20593;-60
2023/10/20 07:53:24;;;;;;;;;;;;;;;16.53;81.88;97456.03;7342820;19;20007;-61
2023/10/20 07:55:49;;;;;;;0.10;0.10;;;;;;;16.48;82.37;97459.09;7364170;19;20397;-61
2023/10/20 07:58:15;;;;;;;0.10;0.10;;;;;;;16.49;82.35;97465.19;7362684;19;20734;-61
2023/10/20 08:00:40;;;;;;;0.10;0.10;;;;;;;16.48;82.12;97463.56;7364528;19;20018;-61
2023/10/20 08:03:06;;;;;;;0.10;0.10;;;;;;;16.48;82.45;97466.19;7363633;19;20011;-60
2023/10/20 08:05:35;;;;;;;0.10;0.10;;;;;;;16.50;82.17;97470.31;7325081;19;20871;-61
2023/10/20 08:08:01;;;;;;;0.10;0.10;;;;;;;16.48;82.71;97469.63;7362380;19;20105;-61
2023/10/20 08:10:27;;;;;;;0.10;0.10;;;;;;;16.48;82.66;97463.56;7364660;19;20452;-60
2023/10/20 08:12:52;;;;;;;0.10;0.10;;;;;;;16.48;82.11;97468.81;7361846;19;20010;-61
2023/10/20 08:15:19;;;;;;;0.10;0.10;;;;;;;16.49;82.25;97468.66;7361770;19;20017;-61
2023/10/20 08:17:46;;;;;;;0.10;0.10;;;;;;;16.52;82.33;97473.59;7361569;19;20890;-60
2023/10/20 08:20:12;;;;;;;0.10;0.10;;;;;;;16.54;82.56;97474.31;7356077;19;20025;-60
2023/10/20 08:22:37;;;;;;;0.10;0.10;;;;;;;16.43;82.29;97460.53;7360213;19;20006;-60
2023/10/20 08:25:03;;;;;;;0.10;0.10;;;;;;;16.56;82.72;97476.78;7365222;19;20978;-61
2023/10/20 08:27:29;;;;;;;0.10;0.10;;;;;;;16.47;82.29;97461.88;7362764;19;20450;-61
2023/10/20 08:29:56;;;;;;;0.10;0.10;;;;;;;16.60;82.16;97483.41;7357674;19;20196;-61
2023/10/20 08:32:26;;;;;;;0.10;0.10;;;;;;;16.50;82.59;97461.56;7359606;19;20017;-61
2023/10/20 08:34:51;;;;;;;0.10;0.10;;;;;;;16.63;82.35;97487.56;7361139;19;20018;-60
2023/10/20 08:37:17;;;;;;;0.10;0.10;;;;;;;16.64;82.35;97484.75;7356298;19;20025;-61
2023/10/20 08:39:46;;;;;;;0.10;0.10;;;;;;;16.67;82.24;97489.72;7361221;19;20007;-61
2023/10/20 08:42:18;;;;;;;0.10;0.10;;;;;;;16.71;82.10;97490.25;7353590;19;20745;-61
2023/10/20 08:44:44;;;;;;;0.10;0.10;;;;;;;16.68;82.47;97486.13;7364769;19;20109;-60
2023/10/20 08:47:12;;;;;;;0.10;0.10;;;;;;;16.70;82.31;97489.41;7355580;19;20011;-61
2023/10/20 08:49:38;;;;;;;0.10;0.10;;;;;;;16.70;82.45;97485.97;7360523;19;20018;-61
2023/10/20 08:52:05;;;;;;;0.10;0.10;;;;;;;16.73;82.40;97496.22;7360520;19;20015;-61
2023/10/20 08:54:31;;;;;;;0.10;0.10;;;;;;;16.73;81.99;97494.44;7357935;19;20014;-61
2023/10/20 08:56:56;;;;;;;0.10;0.10;;;;;;;16.75;82.39;97491.63;7366620;19;20804;-61
2023/10/20 08:59:21;;;;;;;0.10;0.10;;;;;;;16.77;82.33;97500.19;7366428;19;20011;-61
2023/10/20 09:01:47;;;;;;;0.10;0.10;;;;;;;16.75;82.27;97499.53;7326989;19;20486;-60
2023/10/20 09:04:23;;;;;;;0.10;0.10;;;;;;;16.81;81.94;97501.56;7369085;19;20114;-60
2023/10/20 09:06:52;;;;;;;0.10;0.10;;;;;;;16.79;82.36;97499.09;7365989;19;20011;-61
2023/10/20 09:09:19;;;;;;;0.00;0.00;;;;;;;16.75;82.10;97497.72;7371074;19;20015;-61
2023/10/20 09:11:45;;;;;;;0.10;0.10;;;;;;;16.79;81.83;97507.00;7367821;19;20828;-61
2023/10/20 09:14:12;;;;;;;0.10;0.10;;;;;;;16.80;82.28;97508.63;7368168;19;20090;-61
2023/10/20 09:16:38;;;;;;;0.10;0.10;;;;;;;16.81;82.17;97514.72;7364591;19;20478;-61
2023/10/20 09:19:04;;;;;;;0.10;0.10;;;;;;;16.81;81.97;97506.81;7369725;19;20841;-61
2023/10/20 09:21:30;;;;;;;0.10;0.10;;;;;;;16.81;81.88;97512.09;7369094;19;20939;-61
2023/10/20 09:24:00;;;;;;;0.05;0.05;;;;;;;16.84;82.39;97517.91;7369143;19;20003;-61
2023/10/20 09:26:27;;;;;;;0.10;0.10;;;;;;;16.83;82.08;97510.16;7371226;19;20755;-61
2023/10/20 09:28:54;;;;;;;0.10;0.10;;;;;;;16.83;82.02;97513.63;7368737;19;20029;-61
2023/10/20 09:31:21;;;;;;;;;;;;;;;16.90;82.01;97519.09;7368957;19;20015;-61
2023/10/20 09:33:47;;;;;;;0.10;0.10;;;;;;;16.84;82.36;97517.91;7363341;19;19923;-61
2023/10/20 09:36:14;;;;;;;0.10;0.10;;;;;;;16.71;81.99;97495.50;7367882;19;20041;-60
2023/10/20 09:38:43;;;;;;;0.10;0.10;;;;;;;16.83;82.14;97520.69;7365317;19;20014;-61
2023/10/20 09:41:12;;;;;;;0.10;0.10;;;;;;;16.87;82.15;97527.28;7361720;19;20014;-60
2023/10/20 09:44:02;;;;;;;0.10;0.10;;;;;;;16.90;82.21;97526.19;7364673;19;20003;-60
2023/10/20 09:46:57;;;;;;;0.10;0.10;;;;;;;16.89;82.22;97521.88;7364647;19;21043;-61
2023/10/20 09:49:26;;;;;;;0.10;0.10;;;;;;;16.85;82.44;97530.09;7370019;19;20766;-61
2023/10/20 09:51:52;;;;;;;0.08;0.08;;;;;;;16.85;82.49;97535.38;7367041;19;20494;-60
2023/10/20 09:54:21;;;;;;;0.10;0.10;;;;;;;16.85;82.51;97532.72;7364092;19;20026;-61
2023/10/20 09:56:49;;;;;;;0.05;0.05;;;;;;;16.73;82.20;97512.03;7364041;19;20084;-61
2023/10/20 09:59:20;;;;;;;0.10;0.10;;;;;;;16.89;81.92;97533.25;7366870;19;20010;-61
2023/10/20 10:01:45;;;;;;;0.10;0.10;;;;;;;16.82;82.41;97526.91;7368162;19;20010;-61
2023/10/20 10:04:11;;;;;;;0.10;0.10;;;;;;;16.85;82.29;97539.81;7366566;19;20014;-60
2023/10/20 10:06:38;;;;;;;0.10;0.10;;;;;;;16.84;81.97;97546.06;7369274;19;20048;-61
2023/10/20 10:09:07;;;;;;;0.10;0.10;;;;;;;16.81;82.27;97538.44;7374014;19;20021;-61
2023/10/20 10:11:39;;;;;;;0.10;0.10;;;;;;;16.83;81.81;97547.06;7363235;19;20031;-61
2023/10/20 10:14:05;;;;;;;0.10;0.10;;;;;;;16.66;82.07;97538.13;7343429;19;20068;-60
2023/10/20 10:16:31;;;;;;;0.10;0.10;;;;;;;16.74;82.49;97551.41;7356621;19;20487;-61
2023/10/20 10:19:08;;;;;;;0.10;0.10;;;;;;;16.67;81.91;97547.66;7366793;19;20018;-61
2023/10/20 10:21:38;;;;;;;0.10;0.10;;;;;;;16.71;81.91;97556.97;7367408;19;20011;-61
2023/10/20 10:24:08;;;;;;;0.10;0.10;;;;;;;16.67;82.22;97558.22;7365953;19;22110;-61
2023/10/20 10:26:34;;;;;;;0.00;0.00;;;;;;;16.60;82.51;97563.25;7368129;19;20573;-60
2023/10/20 10:28:59;;;;;;;0.10;0.10;;;;;;;16.45;82.38;97542.84;7368750;19;20010;-60
2023/10/20 10:31:37;;;;;;;0.10;0.10;;;;;;;16.57;82.20;97568.84;7361777;19;20010;-61
2023/10/20 10:34:04;;;;;;;0.10;0.10;;;;;;;16.50;82.78;97573.03;7363119;19;20018;-60
2023/10/20 10:36:41;;;;;;;0.10;0.10;;;;;;;16.47;82.73;97572.50;7357458;19;20013;-60
2023/10/20 10:39:06;;;;;;;0.10;0.10;;;;;;;16.45;82.72;97577.09;7366000;19;20114;-60
2023/10/20 10:41:32;;;;;;;0.10;0.10;;;;;;;16.43;82.32;97581.69;7362338;19;20576;-60
2023/10/20 10:43:57;;;;;;;0.10;0.10;;;;;;;16.39;82.30;97585.59;7363032;19;20011;-61
2023/10/20 10:46:34;;;;;;;0.10;0.10;;;;;;;16.39;82.08;97580.31;7362095;19;20018;-61
2023/10/20 10:49:10;;;;;;;0.10;0.10;;;;;;;16.29;82.41;97580.38;7361826;19;20070;-60
2023/10/20 10:51:47;;;;;;;0.10;0.10;;;;;;;16.30;82.49;97585.47;7369990;19;20034;-60
2023/10/20 10:54:14;;;;;;;0.10;0.10;;;;;;;16.23;82.58;97587.06;7367527;19;20011;-60
2023/10/20 10:56:43;;;;;;;0.10;0.10;;;;;;;16.20;82.61;97595.22;7358684;19;20022;-61
2023/10/20 10:59:11;;;;;;;0.10;0.10;;;;;;;16.19;82.86;97596.22;7356062;19;20578;-61
2023/10/20 11:01:38;;;;;;;0.10;0.10;;;;;;;16.16;82.75;97600.94;7364871;19;20022;-61
2023/10/20 11:04:09;;;;;;;0.00;0.00;;;;;;;16.13;83.04;97596.81;7365345;19;20455;-60
2023/10/20 11:06:37;;;;;;;0.10;0.10;;;;;;;16.10;83.07;97594.44;7364394;19;20018;-61
2023/10/20 11:09:08;;;;;;;0.10;0.10;;;;;;;16.11;83.01;97603.19;7357173;19;20773;-60
2023/10/20 11:11:38;;;;;;;0.17;0.17;;;;;;;16.09;83.37;97600.69;7371874;19;20017;-61
2023/10/20 11:14:04;;;;;;;0.10;0.10;;;;;;;16.05;83.04;97607.22;7362159;19;20011;-61
2023/10/20 11:16:29;;;;;;;0.10;0.10;;;;;;;15.99;83.55;97595.47;7364139;19;20419;-61
2023/10/20 11:18:55;;;;;;;0.10;0.10;;;;;;;16.04;83.66;97609.03;7360575;19;20011;-60
2023/10/20 11:21:20;;;;;;;0.10;0.10;;;;;;;16.05;83.00;97615.13;7365271;19;20802;-61
2023/10/20 11:23:49;;;;;;;0.10;0.10;;;;;;;16.05;83.52;97615.13;7361483;19;20407;-61
2023/10/20 11:26:18;;;;;;;0.10;0.10;;;;;;;16.02;83.29;97620.69;7362623;19;20028;-61
2023/10/20 11:28:46;;;;;;;0.10;0.10;;;;;;;16.01;83.42;97613.75;7362470;19;20390;-61
2023/10/20 11:31:12;;;;;;;0.10;0.10;;;;;;;16.01;83.24;97614.56;7364930;19;20045;-61
2023/10/20 11:33:37;;;;;;;0.10;0.10;;;;;;;16.01;83.36;97617.19;7373138;19;20058;-61
2023/10/20 11:36:04;;;;;;;0.10;0.10;;;;;;;15.91;83.10;97603.25;7365945;19;20081;-60
2023/10/20 11:38:32;;;;;;;0.10;0.10;;;;;;;15.99;83.06;97610.44;7359271;19;20031;-60
2023/10/20 11:40:57;;;;;;;;;;;;;;;16.04;82.46;97613.47;7362659;19;20018;-61
2023/10/20 11:43:22;;;;;;;0.00;0.00;;;;;;;15.98;83.12;97606.16;7360052;19;20030;-61
2023/10/20 11:45:48;;;;;;;0.10;0.10;;;;;;;15.96;83.29;97611.53;7359000;19;20007;-61
2023/10/20 11:48:13;;;;;;;0.08;0.08;;;;;;;15.93;82.91;97611.84;7359459;19;20027;-61
2023/10/20 11:50:38;;;;;;;0.10;0.10;;;;;;;15.91;83.03;97607.69;7356050;19;20878;-61
2023/10/20 11:53:05;;;;;;;0.10;0.10;;;;;;;15.88;83.06;97614.06;7357648;19;20013;-60
2023/10/20 11:55:30;;;;;;;0.10;0.10;;;;;;;15.86;83.16;97616.00;7360656;19;20019;-61
2023/10/20 11:57:56;;;;;;;0.10;0.10;;;;;;;15.81;83.17;97608.56;7367237;19;20033;-61
2023/10/20 12:00:21;;;;;;;0.10;0.10;;;;;;;15.79;82.83;97610.50;7361945;19;20595;-61
2023/10/20 12:02:47;;;;;;;0.10;0.10;;;;;;;15.75;83.03;97614.38;7358687;19;20010;-61
2023/10/20 12:05:12;;;;;;;0.10;0.10;;;;;;;15.74;82.65;97615.34;7358209;19;20028;-61
2023/10/20 12:07:41;;;;;;;0.10;0.10;;;;;;;15.69;82.68;97612.31;7363235;19;20060;-60
2023/10/20 12:10:07;;;;;;;0.10;0.10;;;;;;;15.65;82.88;97613.56;7361057;19;20483;-61
2023/10/20 12:12:33;;;;;;;0.10;0.10;;;;;;;15.63;82.83;97615.53;7361881;19;20007;-60
2023/10/20 12:15:00;;;;;;;0.10;0.10;;;;;;;15.59;82.99;97608.84;7325475;19;20032;-60
2023/10/20 12:17:25;;;;;;;0.10;0.10;;;;;;;15.57;83.11;97621.34;7356554;19;20007;-61